createdAt,value
2018-09-15T00:00:24.991Z,69.85
2018-09-15T00:02:53.539Z,69.60
2018-09-15T00:05:21.146Z,69.17
2018-09-15T00:07:49.460Z,69.47
2018-09-15T00:10:17.189Z,68.89
2018-09-15T00:12:44.807Z,69.11
2018-09-15T00:15:12.447Z,69.38
2018-09-15T00:17:41.881Z,69.57
2018-09-15T00:20:09.623Z,70.02
2018-09-15T00:22:37.299Z,69.69
2018-09-15T00:25:05.370Z,69.50
2018-09-15T00:27:32.951Z,69.63
2018-09-15T00:30:00.571Z,69.37
2018-09-15T00:32:28.207Z,69.36
2018-09-15T00:34:55.834Z,68.93
2018-09-15T00:37:23.450Z,68.57
2018-09-15T00:39:51.257Z,68.73
2018-09-15T00:42:18.854Z,68.96
2018-09-15T00:44:46.447Z,68.75
2018-09-15T00:47:14.068Z,69.07
2018-09-15T00:49:41.724Z,69.31
2018-09-15T00:52:09.323Z,69.70
2018-09-15T00:54:36.983Z,69.41
2018-09-15T00:57:04.580Z,69.61
2018-09-15T00:59:32.293Z,69.63
2018-09-15T01:01:59.933Z,69.29
2018-09-15T01:04:27.570Z,68.87
2018-09-15T01:06:55.274Z,69.17
2018-09-15T01:09:22.922Z,69.34
2018-09-15T01:11:50.608Z,69.78
2018-09-15T01:14:18.431Z,69.86
2018-09-15T01:16:46.107Z,69.60
2018-09-15T01:19:13.727Z,69.63
2018-09-15T01:21:41.357Z,69.56
2018-09-15T01:24:09.403Z,69.58
2018-09-15T01:26:37.170Z,69.48
2018-09-15T01:29:04.843Z,69.98
2018-09-15T01:31:32.638Z,69.54
2018-09-15T01:34:00.259Z,69.82
2018-09-15T01:36:28.001Z,69.46
2018-09-15T01:38:55.648Z,69.09
2018-09-15T01:41:23.319Z,69.61
2018-09-15T01:43:50.955Z,69.01
2018-09-15T01:46:18.634Z,69.10
2018-09-15T01:48:46.232Z,68.97
2018-09-15T01:51:13.874Z,69.08
2018-09-15T01:53:41.521Z,69.43
2018-09-15T01:56:11.306Z,69.04
2018-09-15T01:58:39.208Z,69.23
2018-09-15T02:01:07.020Z,69.39
2018-09-15T02:03:34.787Z,69.77
2018-09-15T02:06:10.700Z,69.23
2018-09-15T02:08:38.334Z,69.08
2018-09-15T02:11:06.064Z,69.86
2018-09-15T02:13:33.730Z,69.64
2018-09-15T02:16:01.344Z,69.65
2018-09-15T02:18:29.008Z,68.73
2018-09-15T02:20:56.697Z,68.36
2018-09-15T02:23:24.331Z,68.08
2018-09-15T02:25:52.018Z,68.08
2018-09-15T02:28:19.643Z,69.27
2018-09-15T02:30:47.230Z,69.67
2018-09-15T02:33:14.900Z,69.19
2018-09-15T02:35:42.787Z,69.43
2018-09-15T02:38:10.447Z,69.24
2018-09-15T02:40:39.147Z,69.49
2018-09-15T02:43:25.784Z,69.32
2018-09-15T02:45:53.411Z,69.21
2018-09-15T02:48:21.050Z,69.37
2018-09-15T02:50:48.644Z,69.65
2018-09-15T02:53:16.310Z,69.73
2018-09-15T02:55:43.901Z,69.72
2018-09-15T02:58:11.498Z,69.62
2018-09-15T03:00:39.155Z,69.62
2018-09-15T03:03:06.859Z,69.98
2018-09-15T03:05:34.464Z,69.58
2018-09-15T03:08:02.087Z,69.93
2018-09-15T03:10:29.795Z,69.72
2018-09-15T03:12:57.451Z,69.30
2018-09-15T03:15:25.052Z,69.32
2018-09-15T03:17:52.693Z,68.76
2018-09-15T03:20:20.319Z,68.87
2018-09-15T03:22:47.961Z,69.08
2018-09-15T03:25:15.581Z,69.64
2018-09-15T03:27:43.200Z,69.38
2018-09-15T03:30:10.838Z,68.76
2018-09-15T03:32:38.431Z,69.11
2018-09-15T03:35:06.157Z,68.00
2018-09-15T03:37:33.823Z,68.15
2018-09-15T03:40:01.420Z,68.62
2018-09-15T03:42:29.070Z,68.74
2018-09-15T03:44:56.691Z,68.52
2018-09-15T03:47:24.323Z,67.90
2018-09-15T03:49:51.916Z,68.21
2018-09-15T03:52:29.190Z,68.20
2018-09-15T03:54:56.879Z,67.47
2018-09-15T03:57:24.489Z,67.56
2018-09-15T03:59:52.127Z,67.82
2018-09-15T04:02:19.746Z,68.16
2018-09-15T04:04:47.327Z,68.13
2018-09-15T04:07:14.973Z,67.99
2018-09-15T04:09:42.624Z,68.23
2018-09-15T04:12:10.233Z,67.97
2018-09-15T04:14:37.916Z,68.30
2018-09-15T04:17:05.559Z,67.87
2018-09-15T04:19:33.235Z,67.83
2018-09-15T04:22:00.887Z,67.52
2018-09-15T04:24:28.646Z,67.59
2018-09-15T04:26:56.303Z,67.96
2018-09-15T04:29:23.945Z,67.90
2018-09-15T04:31:51.618Z,67.89
2018-09-15T04:34:19.258Z,67.54
2018-09-15T04:36:46.878Z,66.99
2018-09-15T04:39:14.512Z,67.25
2018-09-15T04:41:42.399Z,66.99
2018-09-15T04:44:10.063Z,67.29
2018-09-15T04:46:37.706Z,67.30
2018-09-15T04:49:05.689Z,67.48
2018-09-15T04:51:33.575Z,67.39
2018-09-15T04:54:01.492Z,67.46
2018-09-15T04:56:29.270Z,67.06
2018-09-15T04:58:57.162Z,67.19
2018-09-15T05:01:24.881Z,67.15
2018-09-15T05:03:52.573Z,66.44
2018-09-15T05:06:20.349Z,66.44
2018-09-15T05:08:48.050Z,67.07
2018-09-15T05:11:15.746Z,68.06
2018-09-15T05:13:43.396Z,68.51
2018-09-15T05:16:11.099Z,68.55
2018-09-15T05:18:38.779Z,68.45
2018-09-15T05:21:06.505Z,68.85
2018-09-15T05:23:34.203Z,68.46
2018-09-15T05:26:01.894Z,68.15
2018-09-15T05:28:29.598Z,67.81
2018-09-15T05:30:57.305Z,68.42
2018-09-15T05:33:25.049Z,67.99
2018-09-15T05:35:52.704Z,68.53
2018-09-15T05:38:20.354Z,68.21
2018-09-15T05:40:48.065Z,68.67
2018-09-15T05:43:15.781Z,67.90
2018-09-15T05:45:43.433Z,67.42
2018-09-15T05:48:11.155Z,66.91
2018-09-15T05:50:38.852Z,66.75
2018-09-15T05:53:06.545Z,66.13
2018-09-15T05:55:34.198Z,66.30
2018-09-15T05:58:01.872Z,66.68
2018-09-15T06:00:29.761Z,66.83
2018-09-15T06:02:57.398Z,66.19
2018-09-15T06:05:25.064Z,65.96
2018-09-15T06:07:52.780Z,66.20
2018-09-15T06:10:20.460Z,64.86
2018-09-15T06:12:48.121Z,64.03
2018-09-15T06:15:16.121Z,64.21
2018-09-15T06:17:43.787Z,62.26
2018-09-15T06:20:11.453Z,61.71
2018-09-15T06:22:39.132Z,62.70
2018-09-15T06:25:06.782Z,62.76
2018-09-15T06:27:34.678Z,62.77
2018-09-15T06:30:02.493Z,62.29
2018-09-15T06:32:30.162Z,62.79
2018-09-15T06:34:57.971Z,62.59
2018-09-15T06:37:25.653Z,62.62
2018-09-15T06:39:53.318Z,62.87
2018-09-15T06:42:21.012Z,62.85
2018-09-15T06:44:48.738Z,62.09
2018-09-15T06:47:16.413Z,61.56
2018-09-15T06:49:44.084Z,61.80
2018-09-15T06:52:12.030Z,60.54
2018-09-15T06:54:39.732Z,58.95
2018-09-15T06:57:07.451Z,57.41
2018-09-15T06:59:35.160Z,56.31
2018-09-15T07:02:02.936Z,54.68
2018-09-15T07:04:30.625Z,53.24
2018-09-15T07:06:58.360Z,52.54
2018-09-15T07:09:26.036Z,51.12
2018-09-15T07:11:53.724Z,51.52
2018-09-15T07:14:21.448Z,53.23
2018-09-15T07:16:49.163Z,52.36
2018-09-15T07:19:16.871Z,51.30
2018-09-15T07:21:44.681Z,50.22
2018-09-15T07:24:12.400Z,50.59
2018-09-15T07:26:40.073Z,49.35
2018-09-15T07:29:07.745Z,49.03
2018-09-15T07:31:35.567Z,48.01
2018-09-15T07:34:03.296Z,48.08
2018-09-15T07:36:30.974Z,47.26
2018-09-15T07:38:58.674Z,47.54
2018-09-15T07:41:26.331Z,47.15
2018-09-15T07:43:54.008Z,47.24
2018-09-15T07:46:21.698Z,47.32
2018-09-15T07:48:49.378Z,48.36
2018-09-15T07:51:17.366Z,46.98
2018-09-15T07:53:45.012Z,47.61
2018-09-15T07:56:12.802Z,47.60
2018-09-15T07:58:40.516Z,47.60
2018-09-15T08:01:08.247Z,46.67
2018-09-15T08:03:35.926Z,44.84
2018-09-15T08:06:03.694Z,43.72
2018-09-15T08:08:31.356Z,41.75
2018-09-15T08:10:59.099Z,39.89
2018-09-15T08:13:26.830Z,37.20
2018-09-15T08:15:54.519Z,34.95
2018-09-15T08:18:23.876Z,34.65
2018-09-15T08:20:52.267Z,31.89
2018-09-15T08:23:19.980Z,31.62
2018-09-15T08:25:47.861Z,31.56
2018-09-15T08:28:15.586Z,30.31
2018-09-15T08:30:43.446Z,30.41
2018-09-15T08:33:11.471Z,29.08
2018-09-15T08:35:39.392Z,29.49
2018-09-15T08:38:07.733Z,28.68
2018-09-15T08:40:35.618Z,29.05
2018-09-15T08:43:03.610Z,28.96
2018-09-15T08:45:32.582Z,28.59
2018-09-15T08:48:00.346Z,28.48
2018-09-15T08:50:28.532Z,28.25
2018-09-15T08:52:56.490Z,28.34
2018-09-15T08:55:24.548Z,27.73
2018-09-15T08:57:52.550Z,28.35
2018-09-15T09:00:20.753Z,29.69
2018-09-15T09:02:48.700Z,28.53
2018-09-15T09:05:16.653Z,30.40
2018-09-15T09:07:44.375Z,29.02
2018-09-15T09:10:12.110Z,28.13
2018-09-15T09:12:39.828Z,29.11
2018-09-15T09:15:07.613Z,29.87
2018-09-15T09:17:35.332Z,30.12
2018-09-15T09:20:03.092Z,32.07
2018-09-15T09:22:30.818Z,32.93
2018-09-15T09:24:58.483Z,33.38
2018-09-15T09:27:26.131Z,33.67
2018-09-15T09:29:53.837Z,33.42
2018-09-15T09:32:21.591Z,31.98
2018-09-15T09:34:49.245Z,31.29
2018-09-15T09:37:16.893Z,29.05
2018-09-15T09:39:44.715Z,29.04
2018-09-15T09:42:12.639Z,26.45
2018-09-15T09:44:40.322Z,26.85
2018-09-15T09:47:08.179Z,26.96
2018-09-15T09:49:35.957Z,25.07
2018-09-15T09:52:03.665Z,26.54
2018-09-15T09:54:31.371Z,25.14
2018-09-15T09:56:59.089Z,24.81
2018-09-15T09:59:26.775Z,24.79
2018-09-15T10:02:00.108Z,25.99
2018-09-15T10:04:28.730Z,25.30
2018-09-15T10:06:56.470Z,24.12
2018-09-15T10:09:24.211Z,24.92
2018-09-15T10:11:51.928Z,25.95
2018-09-15T10:14:19.676Z,24.09
2018-09-15T10:16:47.419Z,23.13
2018-09-15T10:19:15.268Z,22.05
2018-09-15T10:21:42.981Z,21.51
2018-09-15T10:24:10.624Z,21.83
2018-09-15T10:26:38.336Z,21.66
2018-09-15T10:29:06.176Z,21.88
2018-09-15T10:31:34.022Z,22.58
2018-09-15T10:34:01.709Z,22.35
2018-09-15T10:36:29.420Z,21.37
2018-09-15T10:38:57.102Z,21.82
2018-09-15T10:41:24.770Z,20.95
2018-09-15T10:43:52.509Z,20.94
2018-09-15T10:46:20.201Z,19.50
2018-09-15T10:48:47.933Z,19.47
2018-09-15T10:51:15.932Z,19.16
2018-09-15T10:53:43.602Z,18.56
2018-09-15T10:56:11.425Z,20.90
2018-09-15T10:58:39.131Z,19.91
2018-09-15T11:01:06.960Z,20.62
2018-09-15T11:03:34.614Z,21.82
2018-09-15T11:06:02.316Z,21.27
2018-09-15T11:08:29.961Z,21.42
2018-09-15T11:10:57.604Z,22.94
2018-09-15T11:13:25.438Z,24.07
2018-09-15T11:15:53.157Z,22.76
2018-09-15T11:18:20.873Z,20.50
2018-09-15T11:20:48.568Z,21.55
2018-09-15T11:23:16.233Z,23.31
2018-09-15T11:25:43.970Z,25.00
2018-09-15T11:28:11.644Z,25.62
2018-09-15T11:30:39.289Z,26.33
2018-09-15T11:33:07.174Z,25.85
2018-09-15T11:35:34.908Z,24.48
2018-09-15T11:38:02.661Z,23.98
2018-09-15T11:40:30.442Z,22.29
2018-09-15T11:42:58.158Z,19.36
2018-09-15T11:45:25.844Z,19.36
2018-09-15T11:47:53.588Z,21.27
2018-09-15T11:50:21.247Z,23.18
2018-09-15T11:52:49.063Z,24.18
2018-09-15T11:55:17.153Z,23.40
2018-09-15T11:57:44.866Z,24.80
2018-09-15T12:00:12.623Z,23.89
2018-09-15T12:02:40.305Z,21.40
2018-09-15T12:05:08.003Z,21.84
2018-09-15T12:07:35.640Z,23.07
2018-09-15T12:10:03.316Z,23.86
2018-09-15T12:12:30.995Z,25.21
2018-09-15T12:14:58.631Z,24.34
2018-09-15T12:17:26.265Z,21.36
2018-09-15T12:19:53.983Z,18.43
2018-09-15T12:22:21.633Z,17.00
2018-09-15T12:24:49.304Z,15.44
2018-09-15T12:27:17.037Z,14.69
2018-09-15T12:29:44.695Z,13.84
2018-09-15T12:32:12.686Z,13.11
2018-09-15T12:34:40.385Z,13.06
2018-09-15T12:37:08.041Z,12.47
2018-09-15T12:39:35.750Z,12.26
2018-09-15T12:42:03.507Z,14.85
2018-09-15T12:44:31.224Z,17.33
2018-09-15T12:46:58.939Z,19.23
2018-09-15T12:49:26.616Z,19.93
2018-09-15T12:51:54.329Z,22.18
2018-09-15T12:54:22.009Z,22.65
2018-09-15T12:56:49.865Z,21.24
2018-09-15T12:59:17.529Z,17.83
2018-09-15T13:01:45.275Z,15.86
2018-09-15T13:04:13.321Z,15.09
2018-09-15T13:06:41.157Z,16.06
2018-09-15T13:09:11.047Z,14.94
2018-09-15T13:11:38.703Z,14.69
2018-09-15T13:14:06.663Z,13.14
2018-09-15T13:16:34.333Z,14.86
2018-09-15T13:19:02.364Z,16.44
2018-09-15T13:21:30.533Z,18.00
2018-09-15T13:23:58.479Z,19.27
2018-09-15T13:26:26.201Z,20.77
2018-09-15T13:28:54.104Z,21.91
2018-09-15T13:31:21.771Z,22.46
2018-09-15T13:33:49.456Z,23.09
2018-09-15T13:36:17.172Z,24.43
2018-09-15T13:38:44.826Z,23.82
2018-09-15T13:41:12.482Z,23.51
2018-09-15T13:43:40.176Z,23.51
2018-09-15T13:46:07.893Z,24.70
2018-09-15T13:48:35.780Z,24.78
2018-09-15T13:51:03.516Z,25.51
2018-09-15T13:53:31.324Z,25.95
2018-09-15T13:55:59.039Z,26.33
2018-09-15T13:58:26.731Z,27.07
2018-09-15T14:00:54.390Z,27.02
2018-09-15T14:03:22.061Z,24.51
2018-09-15T14:05:49.713Z,23.66
2018-09-15T14:08:17.367Z,24.46
2018-09-15T14:10:45.129Z,22.33
2018-09-15T14:13:12.768Z,21.80
2018-09-15T14:15:40.404Z,22.58
2018-09-15T14:18:08.081Z,23.21
2018-09-15T14:20:35.828Z,24.47
2018-09-15T14:23:03.638Z,24.83
2018-09-15T14:25:31.332Z,24.70
2018-09-15T14:27:59.006Z,24.92
2018-09-15T14:30:26.720Z,25.44
2018-09-15T14:32:54.363Z,25.71
2018-09-15T14:35:22.056Z,25.73
2018-09-15T14:37:49.796Z,25.80
2018-09-15T14:40:17.465Z,25.10
2018-09-15T14:42:45.104Z,22.18
2018-09-15T14:45:12.853Z,19.92
2018-09-15T14:47:40.524Z,20.75
2018-09-15T14:50:08.255Z,21.68
2018-09-15T14:52:36.013Z,23.41
2018-09-15T14:55:03.832Z,23.59
2018-09-15T14:57:31.432Z,24.64
2018-09-15T14:59:59.133Z,23.19
2018-09-15T15:02:26.885Z,21.64
2018-09-15T15:04:54.597Z,20.40
2018-09-15T15:07:22.266Z,22.07
2018-09-15T15:09:49.929Z,23.55
2018-09-15T15:12:17.609Z,24.94
2018-09-15T15:14:45.305Z,25.66
2018-09-15T15:17:12.979Z,26.16
2018-09-15T15:19:40.725Z,25.74
2018-09-15T15:22:08.389Z,26.00
2018-09-15T15:24:36.269Z,25.59
2018-09-15T15:27:03.968Z,26.02
2018-09-15T15:29:31.720Z,26.29
2018-09-15T15:31:59.377Z,24.79
2018-09-15T15:34:27.061Z,22.68
2018-09-15T15:36:54.857Z,21.20
2018-09-15T15:39:22.567Z,20.72
2018-09-15T15:41:50.309Z,20.21
2018-09-15T15:44:18.021Z,19.78
2018-09-15T15:46:45.923Z,19.87
2018-09-15T15:49:13.667Z,19.91
2018-09-15T15:51:41.350Z,20.27
2018-09-15T15:54:09.021Z,20.12
2018-09-15T15:56:36.712Z,20.31
2018-09-15T15:59:04.451Z,21.31
2018-09-15T16:01:32.169Z,20.71
2018-09-15T16:03:59.861Z,20.58
2018-09-15T16:06:27.526Z,21.33
2018-09-15T16:08:55.254Z,22.39
2018-09-15T16:11:23.008Z,23.76
2018-09-15T16:13:50.897Z,25.20
2018-09-15T16:16:18.570Z,26.28
2018-09-15T16:18:46.283Z,26.49
2018-09-15T16:21:13.950Z,27.43
2018-09-15T16:23:41.634Z,27.96
2018-09-15T16:26:09.300Z,28.52
2018-09-15T16:28:36.969Z,28.46
2018-09-15T16:31:04.748Z,29.01
2018-09-15T16:33:32.478Z,28.56
2018-09-15T16:36:00.234Z,28.84
2018-09-15T16:38:28.216Z,29.97
2018-09-15T16:40:56.584Z,29.56
2018-09-15T16:43:24.673Z,28.95
2018-09-15T16:45:53.025Z,29.29
2018-09-15T16:48:21.076Z,29.66
2018-09-15T16:50:49.241Z,29.81
2018-09-15T16:53:16.984Z,29.91
2018-09-15T16:55:44.861Z,30.13
2018-09-15T16:58:12.910Z,30.57
2018-09-15T17:00:40.858Z,31.35
2018-09-15T17:03:08.525Z,31.99
2018-09-15T17:05:36.208Z,32.00
2018-09-15T17:08:04.269Z,32.32
2018-09-15T17:10:32.127Z,32.72
2018-09-15T17:12:59.884Z,32.65
2018-09-15T17:15:27.657Z,33.59
2018-09-15T17:17:55.355Z,34.27
2018-09-15T17:20:23.046Z,34.75
2018-09-15T17:22:50.869Z,35.31
2018-09-15T17:25:18.722Z,36.42
2018-09-15T17:27:46.390Z,36.69
2018-09-15T17:30:14.161Z,38.12
2018-09-15T17:32:41.868Z,38.47
2018-09-15T17:35:09.550Z,39.38
2018-09-15T17:37:37.273Z,39.23
2018-09-15T17:40:05.418Z,39.64
2018-09-15T17:42:33.090Z,39.73
2018-09-15T17:45:00.826Z,39.82
2018-09-15T17:47:28.528Z,39.54
2018-09-15T17:49:56.217Z,40.07
2018-09-15T17:52:23.902Z,40.00
2018-09-15T17:54:51.687Z,40.59
2018-09-15T17:57:19.407Z,40.19
2018-09-15T17:59:47.155Z,40.54
2018-09-15T18:02:14.868Z,41.01
2018-09-15T18:04:42.688Z,41.04
2018-09-15T18:07:10.380Z,41.48
2018-09-15T18:09:38.093Z,41.21
2018-09-15T18:12:05.758Z,41.84
2018-09-15T18:14:33.469Z,41.99
2018-09-15T18:17:01.180Z,42.17
2018-09-15T18:19:28.862Z,42.02
2018-09-15T18:21:56.563Z,42.06
2018-09-15T18:24:24.275Z,42.45
2018-09-15T18:26:51.944Z,42.43
2018-09-15T18:29:19.869Z,42.96
2018-09-15T18:31:47.655Z,42.89
2018-09-15T18:34:15.545Z,43.20
2018-09-15T18:36:43.444Z,43.34
2018-09-15T18:39:11.357Z,43.81
2018-09-15T18:41:39.657Z,43.75
2018-09-15T18:44:07.311Z,43.94
2018-09-15T18:46:35.337Z,43.98
2018-09-15T18:49:04.612Z,44.28
2018-09-15T18:51:32.383Z,44.53
2018-09-15T18:54:00.581Z,44.68
2018-09-15T18:56:28.481Z,44.42
2018-09-15T18:58:56.184Z,44.56
2018-09-15T19:01:23.995Z,44.42
2018-09-15T19:03:51.883Z,44.76
2018-09-15T19:06:19.651Z,44.74
2018-09-15T19:08:47.342Z,44.76
2018-09-15T19:11:15.207Z,45.34
2018-09-15T19:13:42.949Z,45.15
2018-09-15T19:16:10.874Z,45.23
2018-09-15T19:18:38.734Z,46.13
2018-09-15T19:21:06.516Z,45.54
2018-09-15T19:23:35.290Z,45.43
2018-09-15T19:26:03.085Z,44.97
2018-09-15T19:28:31.009Z,45.03
2018-09-15T19:30:58.883Z,44.96
2018-09-15T19:33:26.620Z,45.88
2018-09-15T19:35:54.339Z,46.25
2018-09-15T19:38:22.137Z,46.03
2018-09-15T19:40:49.893Z,46.05
2018-09-15T19:43:17.901Z,46.18
2018-09-15T19:45:45.724Z,46.34
2018-09-15T19:48:13.433Z,46.88
2018-09-15T19:50:41.254Z,46.76
2018-09-15T19:53:08.979Z,46.73
2018-09-15T19:55:36.617Z,47.04
2018-09-15T19:58:04.792Z,47.24
2018-09-15T20:00:32.559Z,47.33
2018-09-15T20:03:00.266Z,47.62
2018-09-15T20:05:28.126Z,47.36
2018-09-15T20:07:55.979Z,47.17
2018-09-15T20:10:33.922Z,47.45
2018-09-15T20:13:08.646Z,47.72
2018-09-15T20:15:35.193Z,47.77
2018-09-15T20:18:01.626Z,47.39
2018-09-15T20:20:28.076Z,47.63
2018-09-15T20:22:56.068Z,47.55
2018-09-15T20:25:23.864Z,47.37
2018-09-15T20:27:51.680Z,47.46
2018-09-15T20:30:19.330Z,47.54
2018-09-15T20:32:47.081Z,47.78
2018-09-15T20:35:14.896Z,48.42
2018-09-15T20:37:42.605Z,48.60
2018-09-15T20:40:10.478Z,48.14
2018-09-15T20:42:39.034Z,48.19
2018-09-15T20:45:07.174Z,48.59
2018-09-15T20:47:34.889Z,48.43
2018-09-15T20:50:02.898Z,48.28
2018-09-15T20:52:30.603Z,48.30
2018-09-15T20:54:58.414Z,48.50
2018-09-15T20:57:26.308Z,48.83
2018-09-15T20:59:53.976Z,48.79
2018-09-15T21:02:21.726Z,48.60
2018-09-15T21:04:49.398Z,48.85
2018-09-15T21:07:17.176Z,48.58
2018-09-15T21:09:45.027Z,49.00
2018-09-15T21:12:12.703Z,49.16
2018-09-15T21:14:40.548Z,48.67
2018-09-15T21:17:08.338Z,49.40
2018-09-15T21:19:36.085Z,49.11
2018-09-15T21:22:03.857Z,49.19
2018-09-15T21:24:31.588Z,49.07
2018-09-15T21:26:59.309Z,49.22
2018-09-15T21:29:27.066Z,49.29
2018-09-15T21:31:54.991Z,49.45
2018-09-15T21:34:22.695Z,49.94
2018-09-15T21:36:50.487Z,50.06
2018-09-15T21:39:18.347Z,50.57
2018-09-15T21:41:46.001Z,49.80
2018-09-15T21:44:14.378Z,49.65
2018-09-15T21:46:42.109Z,50.00
2018-09-15T21:49:09.824Z,49.56
2018-09-15T21:51:37.481Z,50.03
2018-09-15T21:54:05.246Z,50.30
2018-09-15T21:56:32.929Z,50.26
2018-09-15T21:59:00.622Z,50.50
2018-09-15T22:01:28.353Z,50.67
2018-09-15T22:04:01.601Z,50.64
2018-09-15T22:06:29.296Z,50.89
2018-09-15T22:08:56.983Z,49.90
2018-09-15T22:11:24.778Z,50.35
2018-09-15T22:13:52.442Z,50.60
2018-09-15T22:16:20.177Z,51.07
2018-09-15T22:18:47.911Z,51.32
2018-09-15T22:21:15.713Z,51.16
2018-09-15T22:23:43.366Z,50.97
2018-09-15T22:26:11.058Z,51.18
2018-09-15T22:28:38.735Z,51.79
2018-09-15T22:31:06.427Z,51.70
2018-09-15T22:33:34.117Z,51.83
2018-09-15T22:36:01.773Z,52.13
2018-09-15T22:38:29.478Z,51.83
2018-09-15T22:40:57.161Z,52.22
2018-09-15T22:43:24.887Z,52.05
2018-09-15T22:45:52.665Z,51.77
2018-09-15T22:48:20.359Z,52.04
2018-09-15T22:50:48.068Z,52.23
2018-09-15T22:53:15.729Z,52.24
2018-09-15T22:55:43.867Z,52.10
2018-09-15T22:58:11.561Z,51.71
2018-09-15T23:00:39.273Z,51.99
2018-09-15T23:03:06.975Z,52.28
2018-09-15T23:05:34.704Z,52.66
2018-09-15T23:08:02.473Z,52.41
2018-09-15T23:10:30.151Z,52.57
2018-09-15T23:12:57.851Z,52.47
2018-09-15T23:15:25.572Z,52.80
2018-09-15T23:17:53.233Z,52.56
2018-09-15T23:20:21.263Z,52.86
2018-09-15T23:22:49.098Z,52.73
2018-09-15T23:25:16.841Z,52.67
2018-09-15T23:27:44.527Z,52.76
2018-09-15T23:30:12.215Z,53.03
2018-09-15T23:32:39.882Z,53.06
2018-09-15T23:35:07.545Z,52.38
2018-09-15T23:37:35.261Z,52.64
2018-09-15T23:40:02.961Z,53.07
2018-09-15T23:42:30.711Z,53.20
2018-09-15T23:44:58.737Z,52.91
2018-09-15T23:47:26.414Z,52.99
2018-09-15T23:49:54.081Z,53.15
2018-09-15T23:52:21.774Z,53.18
2018-09-15T23:54:49.466Z,53.67
2018-09-15T23:57:17.154Z,53.94
2018-09-15T23:59:44.869Z,53.72
